sensor_id;sensor_type;location;lat;lon;timestamp;P1;durP1;ratioP1;P2;durP2;ratioP2
25249;SDS011;13201;51.148;13.738;2024-01-30T00:01:35;26.20;;;12.90;;
25249;SDS011;13201;51.148;13.738;2024-01-30T00:04:02;27.55;;;13.48;;
25249;SDS011;13201;51.148;13.738;2024-01-30T00:06:27;25.55;;;12.77;;
25249;SDS011;13201;51.148;13.738;2024-01-30T00:08:53;27.38;;;13.38;;
25249;SDS011;13201;51.148;13.738;2024-01-30T00:11:19;24.50;;;12.57;;
25249;SDS011;13201;51.148;13.738;2024-01-30T00:13:45;25.58;;;12.35;;
25249;SDS011;13201;51.148;13.738;2024-01-30T00:16:23;27.48;;;12.90;;
25249;SDS011;13201;51.148;13.738;2024-01-30T00:18:50;31.83;;;13.73;;
25249;SDS011;13201;51.148;13.738;2024-01-30T00:21:16;29.33;;;13.23;;
25249;SDS011;13201;51.148;13.738;2024-01-30T00:23:42;25.27;;;13.03;;
25249;SDS011;13201;51.148;13.738;2024-01-30T00:26:08;28.77;;;13.52;;
25249;SDS011;13201;51.148;13.738;2024-01-30T00:28:34;27.20;;;12.93;;
25249;SDS011;13201;51.148;13.738;2024-01-30T00:31:00;18.75;;;9.60;;
25249;SDS011;13201;51.148;13.738;2024-01-30T00:33:26;27.90;;;13.98;;
25249;SDS011;13201;51.148;13.738;2024-01-30T00:35:51;26.45;;;13.23;;
25249;SDS011;13201;51.148;13.738;2024-01-30T00:38:17;23.80;;;12.38;;
25249;SDS011;13201;51.148;13.738;2024-01-30T00:40:43;26.83;;;13.15;;
25249;SDS011;13201;51.148;13.738;2024-01-30T00:43:08;26.30;;;13.13;;
25249;SDS011;13201;51.148;13.738;2024-01-30T00:45:34;27.05;;;12.90;;
25249;SDS011;13201;51.148;13.738;2024-01-30T00:48:00;25.02;;;12.70;;
25249;SDS011;13201;51.148;13.738;2024-01-30T00:50:26;22.67;;;13.05;;
25249;SDS011;13201;51.148;13.738;2024-01-30T00:52:51;27.65;;;12.88;;
25249;SDS011;13201;51.148;13.738;2024-01-30T00:55:17;26.42;;;13.75;;
25249;SDS011;13201;51.148;13.738;2024-01-30T00:57:43;26.25;;;13.60;;
25249;SDS011;13201;51.148;13.738;2024-01-30T01:00:08;30.23;;;13.32;;
25249;SDS011;13201;51.148;13.738;2024-01-30T01:28:05;25.40;;;12.85;;
25249;SDS011;13201;51.148;13.738;2024-01-30T01:30:31;29.95;;;13.10;;
25249;SDS011;13201;51.148;13.738;2024-01-30T01:32:56;23.13;;;12.15;;
25249;SDS011;13201;51.148;13.738;2024-01-30T01:35:26;23.83;;;12.68;;
25249;SDS011;13201;51.148;13.738;2024-01-30T01:37:52;25.83;;;13.45;;
25249;SDS011;13201;51.148;13.738;2024-01-30T01:40:23;27.48;;;12.90;;
25249;SDS011;13201;51.148;13.738;2024-01-30T01:42:52;25.97;;;12.80;;
25249;SDS011;13201;51.148;13.738;2024-01-30T01:45:19;24.60;;;12.65;;
25249;SDS011;13201;51.148;13.738;2024-01-30T01:47:47;30.10;;;13.40;;
25249;SDS011;13201;51.148;13.738;2024-01-30T01:50:15;25.38;;;12.65;;
25249;SDS011;13201;51.148;13.738;2024-01-30T01:52:45;24.50;;;12.48;;
25249;SDS011;13201;51.148;13.738;2024-01-30T01:55:15;22.65;;;12.88;;
25249;SDS011;13201;51.148;13.738;2024-01-30T01:57:43;24.65;;;13.13;;
25249;SDS011;13201;51.148;13.738;2024-01-30T02:00:09;26.40;;;13.10;;
25249;SDS011;13201;51.148;13.738;2024-01-30T02:02:36;25.02;;;13.02;;
25249;SDS011;13201;51.148;13.738;2024-01-30T02:05:04;25.02;;;13.60;;
25249;SDS011;13201;51.148;13.738;2024-01-30T02:07:30;25.93;;;12.87;;
25249;SDS011;13201;51.148;13.738;2024-01-30T02:09:56;24.67;;;13.13;;
25249;SDS011;13201;51.148;13.738;2024-01-30T02:12:21;27.80;;;12.55;;
25249;SDS011;13201;51.148;13.738;2024-01-30T02:14:47;28.85;;;13.43;;
25249;SDS011;13201;51.148;13.738;2024-01-30T02:17:14;29.40;;;13.05;;
25249;SDS011;13201;51.148;13.738;2024-01-30T02:19:43;25.75;;;13.00;;
25249;SDS011;13201;51.148;13.738;2024-01-30T02:22:09;31.27;;;14.27;;
25249;SDS011;13201;51.148;13.738;2024-01-30T02:24:34;28.40;;;13.20;;
25249;SDS011;13201;51.148;13.738;2024-01-30T02:27:00;25.05;;;12.70;;
25249;SDS011;13201;51.148;13.738;2024-01-30T02:29:26;23.95;;;12.85;;
25249;SDS011;13201;51.148;13.738;2024-01-30T02:31:51;25.20;;;13.13;;
25249;SDS011;13201;51.148;13.738;2024-01-30T02:34:18;24.67;;;12.75;;
25249;SDS011;13201;51.148;13.738;2024-01-30T02:36:44;26.42;;;12.85;;
25249;SDS011;13201;51.148;13.738;2024-01-30T02:39:10;28.20;;;13.45;;
25249;SDS011;13201;51.148;13.738;2024-01-30T02:41:35;25.58;;;12.63;;
25249;SDS011;13201;51.148;13.738;2024-01-30T02:44:04;28.58;;;13.23;;
25249;SDS011;13201;51.148;13.738;2024-01-30T02:46:30;26.73;;;13.20;;
25249;SDS011;13201;51.148;13.738;2024-01-30T02:48:56;26.33;;;12.38;;
25249;SDS011;13201;51.148;13.738;2024-01-30T02:51:22;29.42;;;12.95;;
25249;SDS011;13201;51.148;13.738;2024-01-30T02:53:47;23.98;;;12.60;;
25249;SDS011;13201;51.148;13.738;2024-01-30T02:56:13;24.58;;;11.98;;
25249;SDS011;13201;51.148;13.738;2024-01-30T02:58:39;25.70;;;12.55;;
25249;SDS011;13201;51.148;13.738;2024-01-30T03:01:06;29.02;;;12.32;;
25249;SDS011;13201;51.148;13.738;2024-01-30T03:03:32;23.38;;;11.88;;
25249;SDS011;13201;51.148;13.738;2024-01-30T03:08:24;27.77;;;12.13;;
25249;SDS011;13201;51.148;13.738;2024-01-30T03:10:50;24.52;;;13.10;;
25249;SDS011;13201;51.148;13.738;2024-01-30T03:13:15;28.60;;;12.13;;
25249;SDS011;13201;51.148;13.738;2024-01-30T03:15:41;25.40;;;12.52;;
25249;SDS011;13201;51.148;13.738;2024-01-30T03:18:07;26.20;;;12.43;;
25249;SDS011;13201;51.148;13.738;2024-01-30T03:20:33;25.98;;;12.88;;
25249;SDS011;13201;51.148;13.738;2024-01-30T03:22:59;22.95;;;12.55;;
25249;SDS011;13201;51.148;13.738;2024-01-30T03:25:25;26.40;;;12.57;;
25249;SDS011;13201;51.148;13.738;2024-01-30T03:27:51;25.55;;;12.57;;
25249;SDS011;13201;51.148;13.738;2024-01-30T03:30:17;23.63;;;11.98;;
25249;SDS011;13201;51.148;13.738;2024-01-30T03:32:43;24.67;;;12.40;;
25249;SDS011;13201;51.148;13.738;2024-01-30T03:35:09;28.70;;;13.38;;
25249;SDS011;13201;51.148;13.738;2024-01-30T03:37:35;28.10;;;12.88;;
25249;SDS011;13201;51.148;13.738;2024-01-30T03:40:01;24.90;;;12.48;;
25249;SDS011;13201;51.148;13.738;2024-01-30T03:42:27;22.63;;;11.75;;
25249;SDS011;13201;51.148;13.738;2024-01-30T03:44:53;23.95;;;12.50;;
25249;SDS011;13201;51.148;13.738;2024-01-30T03:49:45;27.57;;;12.63;;
25249;SDS011;13201;51.148;13.738;2024-01-30T03:52:11;28.52;;;13.23;;
25249;SDS011;13201;51.148;13.738;2024-01-30T03:54:37;27.85;;;12.77;;
25249;SDS011;13201;51.148;13.738;2024-01-30T03:57:02;17.60;;;9.25;;
25249;SDS011;13201;51.148;13.738;2024-01-30T03:59:28;21.83;;;11.68;;
25249;SDS011;13201;51.148;13.738;2024-01-30T04:01:54;22.73;;;11.70;;
25249;SDS011;13201;51.148;13.738;2024-01-30T04:04:20;26.05;;;12.35;;
25249;SDS011;13201;51.148;13.738;2024-01-30T04:06:46;29.13;;;13.23;;
25249;SDS011;13201;51.148;13.738;2024-01-30T04:09:12;23.25;;;12.05;;
25249;SDS011;13201;51.148;13.738;2024-01-30T04:11:38;25.33;;;12.40;;
25249;SDS011;13201;51.148;13.738;2024-01-30T04:14:04;27.00;;;12.90;;
25249;SDS011;13201;51.148;13.738;2024-01-30T04:16:30;26.73;;;12.13;;
25249;SDS011;13201;51.148;13.738;2024-01-30T04:18:56;27.55;;;13.00;;
25249;SDS011;13201;51.148;13.738;2024-01-30T04:21:23;23.95;;;12.30;;
25249;SDS011;13201;51.148;13.738;2024-01-30T04:23:48;24.88;;;12.48;;
25249;SDS011;13201;51.148;13.738;2024-01-30T04:26:15;27.33;;;12.68;;
25249;SDS011;13201;51.148;13.738;2024-01-30T04:28:41;27.63;;;12.52;;
25249;SDS011;13201;51.148;13.738;2024-01-30T04:31:07;22.77;;;9.60;;
25249;SDS011;13201;51.148;13.738;2024-01-30T04:33:33;25.48;;;12.45;;
25249;SDS011;13201;51.148;13.738;2024-01-30T04:35:59;24.85;;;12.38;;
25249;SDS011;13201;51.148;13.738;2024-01-30T04:38:24;26.88;;;12.32;;
25249;SDS011;13201;51.148;13.738;2024-01-30T04:40:50;24.80;;;12.50;;
25249;SDS011;13201;51.148;13.738;2024-01-30T04:43:16;26.33;;;12.15;;
25249;SDS011;13201;51.148;13.738;2024-01-30T04:45:41;28.00;;;12.32;;
25249;SDS011;13201;51.148;13.738;2024-01-30T04:48:07;24.45;;;11.98;;
25249;SDS011;13201;51.148;13.738;2024-01-30T04:50:33;25.13;;;11.52;;
25249;SDS011;13201;51.148;13.738;2024-01-30T04:52:58;24.60;;;12.40;;
25249;SDS011;13201;51.148;13.738;2024-01-30T04:55:24;26.25;;;12.80;;
25249;SDS011;13201;51.148;13.738;2024-01-30T04:57:50;28.23;;;12.80;;
25249;SDS011;13201;51.148;13.738;2024-01-30T05:00:15;23.48;;;12.07;;
25249;SDS011;13201;51.148;13.738;2024-01-30T05:02:41;30.27;;;13.07;;
25249;SDS011;13201;51.148;13.738;2024-01-30T05:05:07;27.05;;;12.80;;
25249;SDS011;13201;51.148;13.738;2024-01-30T05:07:33;26.80;;;13.47;;
25249;SDS011;13201;51.148;13.738;2024-01-30T05:09:59;28.60;;;12.73;;
25249;SDS011;13201;51.148;13.738;2024-01-30T05:12:25;24.77;;;12.68;;
25249;SDS011;13201;51.148;13.738;2024-01-30T05:14:51;27.15;;;12.00;;
25249;SDS011;13201;51.148;13.738;2024-01-30T05:17:16;28.08;;;13.18;;
25249;SDS011;13201;51.148;13.738;2024-01-30T05:19:43;25.13;;;12.02;;
25249;SDS011;13201;51.148;13.738;2024-01-30T05:24:35;21.13;;;10.97;;
25249;SDS011;13201;51.148;13.738;2024-01-30T05:27:02;27.55;;;13.43;;
25249;SDS011;13201;51.148;13.738;2024-01-30T05:29:28;21.40;;;11.45;;
25249;SDS011;13201;51.148;13.738;2024-01-30T05:31:53;25.35;;;11.88;;
25249;SDS011;13201;51.148;13.738;2024-01-30T05:34:19;23.80;;;11.93;;
25249;SDS011;13201;51.148;13.738;2024-01-30T05:36:45;24.98;;;11.77;;
25249;SDS011;13201;51.148;13.738;2024-01-30T05:39:10;24.35;;;11.50;;
25249;SDS011;13201;51.148;13.738;2024-01-30T05:41:36;24.23;;;11.75;;
25249;SDS011;13201;51.148;13.738;2024-01-30T05:44:02;21.73;;;12.15;;
25249;SDS011;13201;51.148;13.738;2024-01-30T05:46:27;24.75;;;13.00;;
25249;SDS011;13201;51.148;13.738;2024-01-30T05:48:53;26.02;;;11.75;;
25249;SDS011;13201;51.148;13.738;2024-01-30T05:51:18;30.08;;;13.35;;
25249;SDS011;13201;51.148;13.738;2024-01-30T05:53:44;23.23;;;12.27;;
25249;SDS011;13201;51.148;13.738;2024-01-30T05:56:10;23.23;;;12.13;;
25249;SDS011;13201;51.148;13.738;2024-01-30T05:58:35;23.98;;;12.48;;
25249;SDS011;13201;51.148;13.738;2024-01-30T06:01:02;24.02;;;12.25;;
25249;SDS011;13201;51.148;13.738;2024-01-30T06:03:32;23.13;;;11.68;;
25249;SDS011;13201;51.148;13.738;2024-01-30T06:05:58;28.20;;;12.25;;
25249;SDS011;13201;51.148;13.738;2024-01-30T06:08:23;24.00;;;12.18;;
25249;SDS011;13201;51.148;13.738;2024-01-30T06:10:49;22.50;;;12.23;;
25249;SDS011;13201;51.148;13.738;2024-01-30T06:13:15;25.45;;;11.85;;
25249;SDS011;13201;51.148;13.738;2024-01-30T06:15:40;24.42;;;11.85;;
25249;SDS011;13201;51.148;13.738;2024-01-30T06:18:06;27.00;;;12.88;;
25249;SDS011;13201;51.148;13.738;2024-01-30T06:20:31;24.42;;;12.07;;
25249;SDS011;13201;51.148;13.738;2024-01-30T06:22:57;24.40;;;11.27;;
25249;SDS011;13201;51.148;13.738;2024-01-30T06:25:23;25.33;;;12.00;;
25249;SDS011;13201;51.148;13.738;2024-01-30T06:27:49;21.88;;;11.65;;
25249;SDS011;13201;51.148;13.738;2024-01-30T06:30:14;24.13;;;11.55;;
25249;SDS011;13201;51.148;13.738;2024-01-30T06:32:40;23.08;;;12.02;;
25249;SDS011;13201;51.148;13.738;2024-01-30T06:35:06;22.98;;;12.18;;
25249;SDS011;13201;51.148;13.738;2024-01-30T06:37:32;22.30;;;11.77;;
25249;SDS011;13201;51.148;13.738;2024-01-30T06:39:57;25.35;;;12.23;;
25249;SDS011;13201;51.148;13.738;2024-01-30T06:42:23;28.63;;;13.00;;
25249;SDS011;13201;51.148;13.738;2024-01-30T06:44:49;24.33;;;12.50;;
25249;SDS011;13201;51.148;13.738;2024-01-30T06:47:15;27.10;;;11.98;;
25249;SDS011;13201;51.148;13.738;2024-01-30T06:49:40;27.80;;;12.50;;
25249;SDS011;13201;51.148;13.738;2024-01-30T06:52:07;23.45;;;12.05;;
25249;SDS011;13201;51.148;13.738;2024-01-30T06:54:33;24.97;;;12.50;;
25249;SDS011;13201;51.148;13.738;2024-01-30T06:56:59;23.52;;;11.88;;
25249;SDS011;13201;51.148;13.738;2024-01-30T06:59:25;24.25;;;11.75;;
25249;SDS011;13201;51.148;13.738;2024-01-30T07:01:51;22.70;;;11.02;;
25249;SDS011;13201;51.148;13.738;2024-01-30T07:04:17;23.38;;;11.20;;
25249;SDS011;13201;51.148;13.738;2024-01-30T07:06:43;25.30;;;11.98;;
25249;SDS011;13201;51.148;13.738;2024-01-30T07:09:09;29.42;;;12.15;;
25249;SDS011;13201;51.148;13.738;2024-01-30T07:11:34;24.15;;;12.45;;
25249;SDS011;13201;51.148;13.738;2024-01-30T07:14:00;24.65;;;11.75;;
25249;SDS011;13201;51.148;13.738;2024-01-30T07:16:28;24.45;;;11.90;;
25249;SDS011;13201;51.148;13.738;2024-01-30T07:18:54;23.30;;;12.23;;
25249;SDS011;13201;51.148;13.738;2024-01-30T07:21:21;23.13;;;11.57;;
25249;SDS011;13201;51.148;13.738;2024-01-30T07:23:50;26.83;;;11.93;;
25249;SDS011;13201;51.148;13.738;2024-01-30T07:26:15;23.85;;;12.65;;
25249;SDS011;13201;51.148;13.738;2024-01-30T07:28:41;22.63;;;11.68;;
25249;SDS011;13201;51.148;13.738;2024-01-30T07:31:07;22.20;;;11.93;;
25249;SDS011;13201;51.148;13.738;2024-01-30T07:33:33;20.95;;;11.55;;
25249;SDS011;13201;51.148;13.738;2024-01-30T07:35:59;24.02;;;11.70;;
25249;SDS011;13201;51.148;13.738;2024-01-30T07:38:24;21.67;;;11.77;;
25249;SDS011;13201;51.148;13.738;2024-01-30T07:40:50;24.13;;;11.88;;
25249;SDS011;13201;51.148;13.738;2024-01-30T07:43:16;22.38;;;11.88;;
25249;SDS011;13201;51.148;13.738;2024-01-30T07:45:42;20.15;;;10.40;;
25249;SDS011;13201;51.148;13.738;2024-01-30T07:48:07;21.67;;;11.57;;
25249;SDS011;13201;51.148;13.738;2024-01-30T07:50:33;22.30;;;11.35;;
25249;SDS011;13201;51.148;13.738;2024-01-30T07:52:59;21.40;;;11.32;;
25249;SDS011;13201;51.148;13.738;2024-01-30T07:55:25;24.95;;;11.25;;
25249;SDS011;13201;51.148;13.738;2024-01-30T07:57:56;23.67;;;11.70;;
25249;SDS011;13201;51.148;13.738;2024-01-30T08:00:21;23.35;;;11.88;;
25249;SDS011;13201;51.148;13.738;2024-01-30T08:02:47;21.17;;;11.43;;
25249;SDS011;13201;51.148;13.738;2024-01-30T08:05:13;23.08;;;11.77;;
25249;SDS011;13201;51.148;13.738;2024-01-30T08:07:40;25.45;;;11.75;;
25249;SDS011;13201;51.148;13.738;2024-01-30T08:10:07;21.38;;;11.45;;
25249;SDS011;13201;51.148;13.738;2024-01-30T08:12:33;19.87;;;11.00;;
25249;SDS011;13201;51.148;13.738;2024-01-30T08:14:59;23.05;;;10.88;;
25249;SDS011;13201;51.148;13.738;2024-01-30T08:17:24;22.85;;;11.57;;
25249;SDS011;13201;51.148;13.738;2024-01-30T08:19:50;28.55;;;11.48;;
25249;SDS011;13201;51.148;13.738;2024-01-30T08:22:16;20.92;;;10.93;;
25249;SDS011;13201;51.148;13.738;2024-01-30T08:24:41;24.42;;;12.10;;
25249;SDS011;13201;51.148;13.738;2024-01-30T08:27:07;23.73;;;11.77;;
25249;SDS011;13201;51.148;13.738;2024-01-30T08:29:37;26.55;;;12.23;;
25249;SDS011;13201;51.148;13.738;2024-01-30T08:32:03;24.38;;;11.57;;
25249;SDS011;13201;51.148;13.738;2024-01-30T08:34:30;24.13;;;11.40;;
25249;SDS011;13201;51.148;13.738;2024-01-30T08:36:55;21.95;;;11.15;;
25249;SDS011;13201;51.148;13.738;2024-01-30T08:39:21;13.70;;;7.38;;
25249;SDS011;13201;51.148;13.738;2024-01-30T08:41:47;22.45;;;11.35;;
25249;SDS011;13201;51.148;13.738;2024-01-30T08:44:12;19.85;;;10.93;;
25249;SDS011;13201;51.148;13.738;2024-01-30T08:46:38;20.00;;;10.27;;
25249;SDS011;13201;51.148;13.738;2024-01-30T08:49:04;22.27;;;11.20;;
25249;SDS011;13201;51.148;13.738;2024-01-30T08:51:30;20.55;;;10.65;;
25249;SDS011;13201;51.148;13.738;2024-01-30T08:53:56;20.50;;;10.83;;
25249;SDS011;13201;51.148;13.738;2024-01-30T08:56:21;34.78;;;16.65;;
25249;SDS011;13201;51.148;13.738;2024-01-30T08:58:47;22.55;;;11.45;;
25249;SDS011;13201;51.148;13.738;2024-01-30T09:01:13;27.15;;;13.50;;
25249;SDS011;13201;51.148;13.738;2024-01-30T09:03:39;48.20;;;19.80;;
25249;SDS011;13201;51.148;13.738;2024-01-30T09:06:12;23.15;;;11.80;;
25249;SDS011;13201;51.148;13.738;2024-01-30T09:08:38;26.55;;;13.68;;
25249;SDS011;13201;51.148;13.738;2024-01-30T09:11:13;22.70;;;11.30;;
25249;SDS011;13201;51.148;13.738;2024-01-30T09:13:40;20.80;;;9.57;;
25249;SDS011;13201;51.148;13.738;2024-01-30T09:16:06;18.40;;;9.73;;
25249;SDS011;13201;51.148;13.738;2024-01-30T09:18:32;15.73;;;9.55;;
25249;SDS011;13201;51.148;13.738;2024-01-30T09:20:58;21.15;;;10.35;;
25249;SDS011;13201;51.148;13.738;2024-01-30T09:23:24;12.82;;;7.18;;
25249;SDS011;13201;51.148;13.738;2024-01-30T09:25:50;17.97;;;9.63;;
25249;SDS011;13201;51.148;13.738;2024-01-30T09:28:18;16.00;;;9.18;;
25249;SDS011;13201;51.148;13.738;2024-01-30T09:30:44;18.33;;;9.75;;
25249;SDS011;13201;51.148;13.738;2024-01-30T09:33:10;19.73;;;10.32;;
25249;SDS011;13201;51.148;13.738;2024-01-30T09:35:36;16.65;;;9.23;;
25249;SDS011;13201;51.148;13.738;2024-01-30T09:38:02;20.45;;;10.02;;
25249;SDS011;13201;51.148;13.738;2024-01-30T09:40:28;20.23;;;9.88;;
25249;SDS011;13201;51.148;13.738;2024-01-30T09:42:53;20.10;;;10.00;;
25249;SDS011;13201;51.148;13.738;2024-01-30T09:45:21;18.70;;;9.95;;
25249;SDS011;13201;51.148;13.738;2024-01-30T09:47:49;20.08;;;10.00;;
25249;SDS011;13201;51.148;13.738;2024-01-30T09:50:15;17.03;;;9.63;;
25249;SDS011;13201;51.148;13.738;2024-01-30T09:52:45;21.33;;;10.07;;
25249;SDS011;13201;51.148;13.738;2024-01-30T09:55:11;20.45;;;9.68;;
25249;SDS011;13201;51.148;13.738;2024-01-30T09:57:37;19.55;;;10.40;;
25249;SDS011;13201;51.148;13.738;2024-01-30T10:00:03;22.55;;;10.98;;
25249;SDS011;13201;51.148;13.738;2024-01-30T10:02:31;18.55;;;9.48;;
25249;SDS011;13201;51.148;13.738;2024-01-30T10:04:57;17.77;;;10.15;;
25249;SDS011;13201;51.148;13.738;2024-01-30T10:07:22;24.65;;;10.38;;
25249;SDS011;13201;51.148;13.738;2024-01-30T10:09:48;23.40;;;11.52;;
25249;SDS011;13201;51.148;13.738;2024-01-30T10:12:14;18.40;;;10.50;;
25249;SDS011;13201;51.148;13.738;2024-01-30T10:14:41;18.85;;;10.90;;
25249;SDS011;13201;51.148;13.738;2024-01-30T10:19:39;21.92;;;10.60;;
25249;SDS011;13201;51.148;13.738;2024-01-30T10:22:06;19.02;;;10.50;;
25249;SDS011;13201;51.148;13.738;2024-01-30T10:24:35;21.67;;;10.23;;
25249;SDS011;13201;51.148;13.738;2024-01-30T10:27:01;19.42;;;10.60;;
25249;SDS011;13201;51.148;13.738;2024-01-30T10:29:27;19.10;;;10.45;;
25249;SDS011;13201;51.148;13.738;2024-01-30T10:34:28;20.00;;;10.25;;
25249;SDS011;13201;51.148;13.738;2024-01-30T10:37:10;19.08;;;10.70;;
25249;SDS011;13201;51.148;13.738;2024-01-30T10:39:42;22.15;;;10.27;;
25249;SDS011;13201;51.148;13.738;2024-01-30T10:47:34;22.83;;;10.85;;
25249;SDS011;13201;51.148;13.738;2024-01-30T10:50:04;24.50;;;11.05;;
25249;SDS011;13201;51.148;13.738;2024-01-30T10:52:31;22.33;;;11.45;;
25249;SDS011;13201;51.148;13.738;2024-01-30T10:57:23;20.93;;;10.83;;
25249;SDS011;13201;51.148;13.738;2024-01-30T11:02:17;22.83;;;11.02;;
25249;SDS011;13201;51.148;13.738;2024-01-30T11:04:44;23.20;;;11.45;;
25249;SDS011;13201;51.148;13.738;2024-01-30T11:07:17;20.23;;;11.05;;
25249;SDS011;13201;51.148;13.738;2024-01-30T11:12:40;18.83;;;10.32;;
25249;SDS011;13201;51.148;13.738;2024-01-30T11:15:08;22.17;;;11.15;;
25249;SDS011;13201;51.148;13.738;2024-01-30T11:20:11;19.13;;;8.95;;
25249;SDS011;13201;51.148;13.738;2024-01-30T11:22:47;23.75;;;11.55;;
25249;SDS011;13201;51.148;13.738;2024-01-30T11:25:16;23.75;;;11.00;;
25249;SDS011;13201;51.148;13.738;2024-01-30T11:27:43;18.83;;;10.88;;
25249;SDS011;13201;51.148;13.738;2024-01-30T11:30:09;19.52;;;10.77;;
25249;SDS011;13201;51.148;13.738;2024-01-30T11:32:35;29.45;;;11.73;;
25249;SDS011;13201;51.148;13.738;2024-01-30T11:35:05;21.27;;;11.37;;
25249;SDS011;13201;51.148;13.738;2024-01-30T11:37:36;20.17;;;11.10;;
25249;SDS011;13201;51.148;13.738;2024-01-30T11:40:03;22.38;;;11.25;;
25249;SDS011;13201;51.148;13.738;2024-01-30T11:42:29;20.43;;;11.43;;
25249;SDS011;13201;51.148;13.738;2024-01-30T11:44:55;21.20;;;11.13;;
25249;SDS011;13201;51.148;13.738;2024-01-30T11:47:22;21.30;;;11.25;;
25249;SDS011;13201;51.148;13.738;2024-01-30T11:49:48;21.98;;;11.85;;
25249;SDS011;13201;51.148;13.738;2024-01-30T11:52:13;21.40;;;11.63;;
25249;SDS011;13201;51.148;13.738;2024-01-30T11:54:39;19.63;;;11.75;;
25249;SDS011;13201;51.148;13.738;2024-01-30T11:57:05;33.17;;;17.08;;
25249;SDS011;13201;51.148;13.738;2024-01-30T11:59:31;24.75;;;11.60;;
25249;SDS011;13201;51.148;13.738;2024-01-30T12:01:57;20.65;;;10.98;;
25249;SDS011;13201;51.148;13.738;2024-01-30T12:04:22;22.23;;;11.70;;
25249;SDS011;13201;51.148;13.738;2024-01-30T12:06:51;21.80;;;11.88;;
25249;SDS011;13201;51.148;13.738;2024-01-30T12:09:17;24.50;;;12.18;;
25249;SDS011;13201;51.148;13.738;2024-01-30T12:11:46;20.98;;;11.55;;
25249;SDS011;13201;51.148;13.738;2024-01-30T12:14:13;22.73;;;12.00;;
25249;SDS011;13201;51.148;13.738;2024-01-30T12:19:06;25.60;;;12.20;;
25249;SDS011;13201;51.148;13.738;2024-01-30T12:21:33;23.98;;;11.50;;
25249;SDS011;13201;51.148;13.738;2024-01-30T12:23:59;26.02;;;11.80;;
25249;SDS011;13201;51.148;13.738;2024-01-30T12:26:26;21.87;;;11.33;;
25249;SDS011;13201;51.148;13.738;2024-01-30T12:28:55;28.42;;;12.93;;
25249;SDS011;13201;51.148;13.738;2024-01-30T12:31:26;21.55;;;12.23;;
25249;SDS011;13201;51.148;13.738;2024-01-30T12:33:53;21.35;;;11.63;;
25249;SDS011;13201;51.148;13.738;2024-01-30T12:36:18;24.17;;;12.25;;
25249;SDS011;13201;51.148;13.738;2024-01-30T12:38:44;20.73;;;11.57;;
25249;SDS011;13201;51.148;13.738;2024-01-30T12:41:10;23.10;;;12.15;;
25249;SDS011;13201;51.148;13.738;2024-01-30T12:43:36;22.67;;;12.25;;
25249;SDS011;13201;51.148;13.738;2024-01-30T12:46:02;22.92;;;12.05;;
25249;SDS011;13201;51.148;13.738;2024-01-30T12:48:28;20.90;;;11.68;;
25249;SDS011;13201;51.148;13.738;2024-01-30T12:50:55;25.42;;;12.35;;
25249;SDS011;13201;51.148;13.738;2024-01-30T12:53:21;22.08;;;11.40;;
25249;SDS011;13201;51.148;13.738;2024-01-30T12:55:47;24.77;;;12.77;;
25249;SDS011;13201;51.148;13.738;2024-01-30T12:58:14;24.17;;;11.80;;
25249;SDS011;13201;51.148;13.738;2024-01-30T13:00:40;20.63;;;11.63;;
25249;SDS011;13201;51.148;13.738;2024-01-30T13:03:08;23.98;;;11.82;;
25249;SDS011;13201;51.148;13.738;2024-01-30T13:05:35;20.50;;;11.98;;
25249;SDS011;13201;51.148;13.738;2024-01-30T13:08:00;24.05;;;12.25;;
25249;SDS011;13201;51.148;13.738;2024-01-30T13:10:26;22.23;;;12.68;;
25249;SDS011;13201;51.148;13.738;2024-01-30T13:12:52;22.77;;;11.93;;
25249;SDS011;13201;51.148;13.738;2024-01-30T13:15:18;21.25;;;12.75;;
25249;SDS011;13201;51.148;13.738;2024-01-30T13:17:44;23.63;;;12.25;;
25249;SDS011;13201;51.148;13.738;2024-01-30T13:20:12;23.38;;;12.07;;
25249;SDS011;13201;51.148;13.738;2024-01-30T13:22:41;23.45;;;12.20;;
25249;SDS011;13201;51.148;13.738;2024-01-30T13:25:08;22.20;;;11.65;;
25249;SDS011;13201;51.148;13.738;2024-01-30T13:27:34;24.80;;;13.18;;
25249;SDS011;13201;51.148;13.738;2024-01-30T13:30:00;23.50;;;12.15;;
25249;SDS011;13201;51.148;13.738;2024-01-30T13:32:25;23.95;;;11.98;;
25249;SDS011;13201;51.148;13.738;2024-01-30T13:34:51;28.05;;;12.60;;
25249;SDS011;13201;51.148;13.738;2024-01-30T13:37:17;22.73;;;12.82;;
25249;SDS011;13201;51.148;13.738;2024-01-30T13:39:42;22.80;;;12.05;;
25249;SDS011;13201;51.148;13.738;2024-01-30T13:42:08;23.80;;;12.80;;
25249;SDS011;13201;51.148;13.738;2024-01-30T13:44:35;24.08;;;12.52;;
25249;SDS011;13201;51.148;13.738;2024-01-30T13:47:00;23.98;;;13.05;;
25249;SDS011;13201;51.148;13.738;2024-01-30T13:49:26;24.25;;;12.05;;
25249;SDS011;13201;51.148;13.738;2024-01-30T13:51:52;25.55;;;13.05;;
25249;SDS011;13201;51.148;13.738;2024-01-30T13:54:18;20.20;;;11.50;;
25249;SDS011;13201;51.148;13.738;2024-01-30T13:56:43;26.00;;;12.63;;
25249;SDS011;13201;51.148;13.738;2024-01-30T13:59:09;23.20;;;12.55;;
25249;SDS011;13201;51.148;13.738;2024-01-30T14:01:35;25.35;;;12.95;;
25249;SDS011;13201;51.148;13.738;2024-01-30T14:04:00;22.45;;;12.10;;
25249;SDS011;13201;51.148;13.738;2024-01-30T14:06:26;25.92;;;13.20;;
25249;SDS011;13201;51.148;13.738;2024-01-30T14:08:52;24.08;;;12.52;;
25249;SDS011;13201;51.148;13.738;2024-01-30T14:11:18;25.92;;;12.30;;
25249;SDS011;13201;51.148;13.738;2024-01-30T14:13:44;25.13;;;12.43;;
25249;SDS011;13201;51.148;13.738;2024-01-30T14:16:10;23.63;;;11.90;;
25249;SDS011;13201;51.148;13.738;2024-01-30T14:18:35;27.58;;;13.32;;
25249;SDS011;13201;51.148;13.738;2024-01-30T14:21:01;22.73;;;12.80;;
25249;SDS011;13201;51.148;13.738;2024-01-30T14:23:27;25.33;;;11.82;;
25249;SDS011;13201;51.148;13.738;2024-01-30T14:25:53;24.83;;;11.75;;
25249;SDS011;13201;51.148;13.738;2024-01-30T14:28:19;22.70;;;12.05;;
25249;SDS011;13201;51.148;13.738;2024-01-30T14:30:44;26.92;;;14.02;;
25249;SDS011;13201;51.148;13.738;2024-01-30T14:33:10;27.95;;;13.18;;
25249;SDS011;13201;51.148;13.738;2024-01-30T14:35:36;19.60;;;11.00;;
25249;SDS011;13201;51.148;13.738;2024-01-30T14:38:02;28.25;;;14.77;;
25249;SDS011;13201;51.148;13.738;2024-01-30T14:40:30;30.52;;;16.35;;
25249;SDS011;13201;51.148;13.738;2024-01-30T14:42:56;46.22;;;26.05;;
25249;SDS011;13201;51.148;13.738;2024-01-30T14:45:21;26.88;;;14.35;;
25249;SDS011;13201;51.148;13.738;2024-01-30T14:47:47;41.35;;;22.95;;
25249;SDS011;13201;51.148;13.738;2024-01-30T14:50:13;55.55;;;30.90;;
25249;SDS011;13201;51.148;13.738;2024-01-30T14:52:41;41.08;;;23.23;;
25249;SDS011;13201;51.148;13.738;2024-01-30T14:55:07;34.58;;;18.73;;
25249;SDS011;13201;51.148;13.738;2024-01-30T14:57:33;33.03;;;18.08;;
25249;SDS011;13201;51.148;13.738;2024-01-30T15:00:00;27.93;;;14.33;;